Time;durP1;ratioP1;P1;durP2;ratioP2;P2;SDS_P1;SDS_P2;PMS_P1;PMS_P2;Temp;Humidity;BMP_temperature;BMP_pressure;BME280_temperature;BME280_humidity;BME280_pressure;Samples;Min_cycle;Max_cycle;Signal;HPM_P1;HPM_P2
2023/06/03 00:01:24;;;;;;;3.72;1.52;;;18.20;74.90;;;;;;5095373;28;20103;-80
2023/06/03 00:03:50;;;;;;;4.50;1.30;;;18.20;74.90;;;;;;5077029;28;20032;-80
2023/06/03 00:06:16;;;;;;;3.17;1.30;;;18.20;75.00;;;;;;5095056;28;20505;-80
2023/06/03 00:08:44;;;;;;;6.18;1.95;;;18.20;75.00;;;;;;5095050;28;20028;-80
2023/06/03 00:11:11;;;;;;;5.15;1.23;;;18.20;74.90;;;;;;5077013;28;20455;-81
2023/06/03 00:13:37;;;;;;;3.05;1.00;;;18.20;75.10;;;;;;5094841;28;20036;-80
2023/06/03 00:16:03;;;;;;;4.13;1.60;;;18.20;75.10;;;;;;5095175;28;20032;-80
2023/06/03 00:18:30;;;;;;;6.68;1.92;;;18.20;75.10;;;;;;5095285;28;20054;-80
2023/06/03 00:20:55;;;;;;;7.55;2.28;;;18.20;75.00;;;;;;5095007;28;20116;-80
2023/06/03 00:23:21;;;;;;;5.70;2.67;;;18.20;74.90;;;;;;5076655;28;20060;-80
2023/06/03 00:25:47;;;;;;;4.40;2.58;;;18.00;74.80;;;;;;5094620;28;20040;-80
2023/06/03 00:28:12;;;;;;;7.35;2.80;;;17.80;75.40;;;;;;5094658;28;20435;-80
2023/06/03 00:30:38;;;;;;;6.40;2.58;;;17.70;75.80;;;;;;5076677;28;20483;-80
2023/06/03 00:33:04;;;;;;;6.20;2.22;;;17.50;76.00;;;;;;5076712;28;20553;-80
2023/06/03 00:35:30;;;;;;;3.72;2.00;;;17.50;76.30;;;;;;5094231;28;20484;-80
2023/06/03 00:37:56;;;;;;;5.72;2.80;;;17.50;76.40;;;;;;5094831;28;20028;-80
2023/06/03 00:40:21;;;;;;;6.53;2.30;;;17.50;76.40;;;;;;5094414;28;20040;-79
2023/06/03 00:42:47;;;;;;;6.35;3.22;;;17.50;76.20;;;;;;5094341;28;20071;-79
2023/06/03 00:45:13;;;;;;;4.25;1.80;;;17.50;76.20;;;;;;5094049;28;20036;-80
2023/06/03 00:47:39;;;;;;;7.10;2.70;;;17.50;76.20;;;;;;5094407;28;20039;-80
2023/06/03 00:50:09;;;;;;;6.55;2.40;;;17.50;76.20;;;;;;5093155;28;20388;-80
2023/06/03 00:52:36;;;;;;;6.03;2.70;;;17.40;76.10;;;;;;5094436;28;20067;-80
2023/06/03 00:55:03;;;;;;;8.07;2.80;;;17.40;76.00;;;;;;5094324;28;20456;-80
2023/06/03 00:57:28;;;;;;;4.72;2.97;;;17.30;76.10;;;;;;5076436;28;20157;-81
2023/06/03 00:59:54;;;;;;;5.00;2.15;;;17.20;76.30;;;;;;5093906;28;20062;-80
2023/06/03 01:02:20;;;;;;;6.72;2.10;;;17.10;76.30;;;;;;5094248;28;20452;-79
2023/06/03 01:04:47;;;;;;;4.55;2.15;;;17.10;76.20;;;;;;5093847;28;20443;-80
2023/06/03 01:07:48;;;;;;;3.85;1.50;;;17.10;76.20;;;;;;5076339;28;20039;-80
2023/06/03 01:10:27;;;;;;;7.07;1.63;;;17.10;75.90;;;;;;5064672;28;20118;-80
2023/06/03 01:13:24;;;;;;;5.47;2.28;;;17.20;76.00;;;;;;5093906;28;20388;-80
2023/06/03 01:15:53;;;;;;;4.93;1.83;;;17.20;75.60;;;;;;5093789;28;20503;-80
2023/06/03 01:18:20;;;;;;;6.05;1.70;;;17.10;75.50;;;;;;5094070;28;20028;-80
2023/06/03 01:20:48;;;;;;;5.85;1.88;;;17.10;75.50;;;;;;5075419;28;20078;-81
2023/06/03 01:23:28;;;;;;;4.20;1.75;;;17.10;75.40;;;;;;5093351;28;20480;-80
2023/06/03 01:25:57;;;;;;;4.28;1.83;;;17.00;75.60;;;;;;5093987;28;20076;-80
2023/06/03 01:28:27;;;;;;;3.88;1.67;;;17.00;75.30;;;;;;5093836;28;20084;-80
2023/06/03 01:30:54;;;;;;;5.60;2.10;;;16.90;75.40;;;;;;5093879;28;20038;-80
2023/06/03 01:33:21;;;;;;;4.72;1.98;;;16.90;75.40;;;;;;5093315;28;20024;-80
2023/06/03 01:35:53;;;;;;;5.53;1.75;;;16.90;75.40;;;;;;5075827;28;20036;-80
2023/06/03 01:38:18;;;;;;;3.72;1.80;;;16.90;75.20;;;;;;5075602;28;20439;-80
2023/06/03 01:40:45;;;;;;;3.60;1.50;;;16.90;74.80;;;;;;5075673;28;20081;-80
2023/06/03 01:43:11;;;;;;;4.95;1.55;;;16.80;75.00;;;;;;5093679;28;20056;-80
2023/06/03 01:45:37;;;;;;;2.20;1.13;;;16.80;75.10;;;;;;5075062;28;20063;-81
2023/06/03 01:48:03;;;;;;;7.13;1.58;;;16.80;75.20;;;;;;5075494;28;20418;-80
2023/06/03 01:50:29;;;;;;;7.30;1.30;;;16.90;75.00;;;;;;5075337;28;20032;-79
2023/06/03 01:52:55;;;;;;;7.90;2.00;;;16.80;74.90;;;;;;5093265;28;20128;-80
2023/06/03 01:55:21;;;;;;;2.85;1.10;;;16.80;74.50;;;;;;5093133;28;20032;-79
2023/06/03 01:57:47;;;;;;;3.22;1.63;;;16.70;74.90;;;;;;5093608;28;20036;-79
2023/06/03 02:00:13;;;;;;;4.63;1.40;;;16.70;74.70;;;;;;5093714;28;20082;-80
2023/06/03 02:02:39;;;;;;;3.58;1.52;;;16.70;74.90;;;;;;5097674;28;20020;-80
2023/06/03 02:05:05;;;;;;;4.07;1.17;;;16.70;74.30;;;;;;5079626;28;20095;-80
2023/06/03 02:07:31;;;;;;;4.10;1.20;;;16.60;74.60;;;;;;5097125;28;20496;-80
2023/06/03 02:09:58;;;;;;;4.65;1.95;;;16.70;74.80;;;;;;5097559;28;20024;-80
2023/06/03 02:12:23;;;;;;;5.32;1.20;;;16.70;74.50;;;;;;5097600;28;20028;-80
2023/06/03 02:14:53;;;;;;;3.67;1.48;;;16.70;74.50;;;;;;5079435;28;20135;-80
2023/06/03 02:17:22;;;;;;;2.70;0.95;;;16.70;74.40;;;;;;5097396;28;20102;-79
2023/06/03 02:19:48;;;;;;;3.40;1.33;;;16.80;74.40;;;;;;5096978;28;20085;-80
2023/06/03 02:22:14;;;;;;;2.65;1.00;;;16.80;74.30;;;;;;5097452;28;20039;-80
2023/06/03 02:24:40;;;;;;;3.95;1.40;;;16.90;74.00;;;;;;5096859;28;20040;-80
2023/06/03 02:27:06;;;;;;;3.33;1.00;;;16.80;73.60;;;;;;5097322;28;20036;-80
2023/06/03 02:29:32;;;;;;;2.03;0.85;;;16.80;73.40;;;;;;5097194;28;20032;-80
2023/06/03 02:31:59;;;;;;;3.22;0.95;;;16.80;73.40;;;;;;5096959;28;20062;-79
2023/06/03 02:34:25;;;;;;;6.72;0.90;;;16.70;73.50;;;;;;5062467;28;20127;-80
2023/06/03 02:36:52;;;;;;;2.60;0.95;;;16.80;73.40;;;;;;5096844;28;20036;-80
2023/06/03 02:39:18;;;;;;;4.53;0.85;;;16.90;73.60;;;;;;5062307;28;20119;-80
2023/06/03 02:41:46;;;;;;;2.55;0.85;;;16.90;72.70;;;;;;5078872;28;20412;-80
2023/06/03 02:44:13;;;;;;;8.05;1.38;;;16.90;72.90;;;;;;5078718;28;20063;-80
2023/06/03 02:46:39;;;;;;;4.82;0.93;;;16.80;72.40;;;;;;5096860;28;20048;-80
2023/06/03 02:49:06;;;;;;;2.30;1.08;;;16.70;72.70;;;;;;5096803;28;20035;-80
2023/06/03 02:51:32;;;;;;;3.30;1.10;;;16.70;73.10;;;;;;5078249;28;20034;-80
2023/06/03 02:53:58;;;;;;;6.72;1.52;;;16.70;72.40;;;;;;5062005;28;20024;-80
2023/06/03 02:56:24;;;;;;;4.13;1.17;;;16.70;72.40;;;;;;5078720;28;20025;-80
2023/06/03 02:58:50;;;;;;;4.13;1.23;;;16.50;72.10;;;;;;5096500;28;20032;-80
2023/06/03 03:01:18;;;;;;;3.83;1.20;;;16.40;72.60;;;;;;5096354;28;20500;-80
2023/06/03 03:03:44;;;;;;;2.72;1.30;;;16.40;73.00;;;;;;5095334;28;20484;-79
2023/06/03 03:06:15;;;;;;;2.10;0.95;;;16.30;73.10;;;;;;5078424;28;20123;-80
2023/06/03 03:08:41;;;;;;;3.60;1.42;;;16.40;73.40;;;;;;5095968;28;20040;-80
2023/06/03 03:11:09;;;;;;;3.45;1.25;;;16.40;72.60;;;;;;5096183;28;20024;-80
2023/06/03 03:13:35;;;;;;;2.92;1.25;;;16.40;73.00;;;;;;5095627;28;20115;-80
2023/06/03 03:16:01;;;;;;;3.22;1.05;;;16.40;72.60;;;;;;5096341;28;20093;-80
2023/06/03 03:18:26;;;;;;;6.57;1.20;;;16.30;72.80;;;;;;5096241;28;20444;-79
2023/06/03 03:20:52;;;;;;;2.45;1.23;;;16.30;72.80;;;;;;5095665;28;20468;-80
2023/06/03 03:23:18;;;;;;;1.38;0.73;;;16.20;72.30;;;;;;5096196;28;20036;-80
2023/06/03 03:25:45;;;;;;;3.25;1.15;;;16.20;73.50;;;;;;5078050;28;20070;-79
2023/06/03 03:28:11;;;;;;;4.90;1.00;;;16.20;73.70;;;;;;5096086;28;20028;-80
2023/06/03 03:30:37;;;;;;;3.53;1.15;;;16.20;72.80;;;;;;5095725;28;20070;-80
2023/06/03 03:33:04;;;;;;;4.00;1.00;;;16.20;72.90;;;;;;5095782;28;20029;-79
2023/06/03 03:35:30;;;;;;;2.55;1.20;;;16.30;73.50;;;;;;5095670;28;20036;-80
2023/06/03 03:38:06;;;;;;;3.90;1.05;;;16.30;73.80;;;;;;5095966;28;20047;-80
2023/06/03 03:40:35;;;;;;;3.53;1.20;;;16.20;72.40;;;;;;5095871;28;20165;-80
2023/06/03 03:43:02;;;;;;;2.95;1.27;;;16.10;71.80;;;;;;5077499;28;20387;-80
2023/06/03 03:45:36;;;;;;;6.10;1.35;;;16.00;72.80;;;;;;5095410;28;20145;-81
2023/06/03 03:48:08;;;;;;;1.80;0.73;;;15.90;72.60;;;;;;5095828;28;20028;-80
2023/06/03 03:50:50;;;;;;;2.83;1.70;;;16.10;73.10;;;;;;5095254;28;20024;-80
2023/06/03 03:53:22;;;;;;;3.05;0.90;;;16.10;72.60;;;;;;5060658;28;20374;-81
2023/06/03 03:55:52;;;;;;;2.92;1.73;;;16.10;73.00;;;;;;5095570;28;20032;-80
2023/06/03 03:58:37;;;;;;;1.90;0.90;;;16.10;72.00;;;;;;5095701;28;20107;-80
2023/06/03 04:01:18;;;;;;;2.38;0.82;;;16.20;72.80;;;;;;5095481;28;20121;-80
2023/06/03 04:03:46;;;;;;;2.85;1.00;;;16.20;72.30;;;;;;5094986;28;20439;-80
2023/06/03 04:06:14;;;;;;;2.70;1.45;;;16.10;71.00;;;;;;5095270;28;20020;-80
2023/06/03 04:08:46;;;;;;;2.08;1.00;;;16.00;71.00;;;;;;5095323;28;20028;-80
2023/06/03 04:11:27;;;;;;;3.67;1.02;;;16.00;71.40;;;;;;5095544;28;20035;-80
2023/06/03 04:13:53;;;;;;;3.45;0.75;;;16.00;71.70;;;;;;5095038;28;20031;-80
2023/06/03 04:16:53;;;;;;;1.85;0.70;;;16.10;71.20;;;;;;5094843;28;20468;-80
2023/06/03 04:19:32;;;;;;;2.95;0.80;;;16.10;71.60;;;;;;5095185;28;20035;-80
2023/06/03 04:21:59;;;;;;;3.55;0.95;;;16.20;71.90;;;;;;5094535;28;20020;-80
2023/06/03 04:24:26;;;;;;;2.08;0.60;;;16.20;71.40;;;;;;5092675;28;20070;-80
2023/06/03 04:26:52;;;;;;;1.88;0.77;;;16.20;71.70;;;;;;5094888;28;20032;-79
2023/06/03 04:29:19;;;;;;;2.65;1.08;;;16.30;71.50;;;;;;5094989;28;20130;-80
2023/06/03 04:31:44;;;;;;;2.40;0.52;;;16.30;70.80;;;;;;5094522;28;20051;-80
2023/06/03 04:34:10;;;;;;;4.90;1.08;;;16.20;69.90;;;;;;5076758;28;20471;-80
2023/06/03 04:36:36;;;;;;;1.65;0.70;;;16.10;69.60;;;;;;5094867;28;20035;-80
2023/06/03 04:39:05;;;;;;;1.90;0.68;;;15.90;70.20;;;;;;5094466;28;20032;-80
2023/06/03 04:41:33;;;;;;;2.78;0.73;;;15.70;69.90;;;;;;5094709;28;20035;-80
2023/06/03 04:44:02;;;;;;;1.48;0.57;;;15.60;70.40;;;;;;5076552;28;20060;-79
2023/06/03 04:46:31;;;;;;;3.70;0.65;;;15.70;71.00;;;;;;5094610;28;20044;-80
2023/06/03 04:49:01;;;;;;;2.92;0.57;;;15.80;70.10;;;;;;5094628;28;20060;-79
2023/06/03 04:51:28;;;;;;;3.35;0.70;;;15.80;70.40;;;;;;5075794;28;20097;-79
2023/06/03 04:53:57;;;;;;;1.90;0.50;;;15.80;69.60;;;;;;5094417;28;20020;-80
2023/06/03 04:56:24;;;;;;;2.08;0.80;;;15.80;69.70;;;;;;5094379;28;20059;-80
2023/06/03 04:58:55;;;;;;;2.22;0.40;;;15.90;69.40;;;;;;5094328;28;20039;-80
2023/06/03 05:01:25;;;;;;;2.35;0.80;;;15.90;69.60;;;;;;5094232;28;20548;-80
2023/06/03 05:03:51;;;;;;;2.53;0.80;;;15.90;69.40;;;;;;5094005;28;20553;-80
2023/06/03 05:06:17;;;;;;;2.40;0.70;;;16.00;69.60;;;;;;5076163;28;20123;-80
2023/06/03 05:08:43;;;;;;;5.35;0.60;;;15.90;68.20;;;;;;5076217;28;20082;-80
2023/06/03 05:11:09;;;;;;;3.78;0.52;;;15.80;67.70;;;;;;5093926;28;20388;-80
2023/06/03 05:13:35;;;;;;;2.10;0.50;;;15.60;68.40;;;;;;5094107;28;20028;-80
2023/06/03 05:16:01;;;;;;;2.85;0.82;;;15.60;68.60;;;;;;5093660;28;20475;-80
2023/06/03 05:18:26;;;;;;;3.75;0.50;;;15.60;68.90;;;;;;5094085;28;20085;-80
2023/06/03 05:20:52;;;;;;;1.77;0.45;;;15.60;68.30;;;;;;5093610;28;20039;-78
2023/06/03 05:23:17;;;;;;;2.60;0.57;;;15.70;68.40;;;;;;5094004;28;20503;-80
2023/06/03 05:25:43;;;;;;;3.03;0.77;;;15.80;68.30;;;;;;5093887;28;20060;-80
2023/06/03 05:28:11;;;;;;;3.35;0.63;;;15.80;67.50;;;;;;5093373;28;20486;-80
2023/06/03 05:30:36;;;;;;;5.70;0.80;;;15.90;67.60;;;;;;5076016;28;20084;-80
2023/06/03 05:33:02;;;;;;;2.60;0.70;;;15.80;67.60;;;;;;5093641;28;20032;-81
2023/06/03 05:35:28;;;;;;;1.63;0.75;;;15.80;66.90;;;;;;5075281;28;20529;-79
2023/06/03 05:37:53;;;;;;;1.55;0.30;;;15.70;67.60;;;;;;5058952;28;20459;-80
2023/06/03 05:40:19;;;;;;;4.25;0.40;;;15.60;67.70;;;;;;5075625;28;20076;-80
2023/06/03 05:42:47;;;;;;;3.72;0.60;;;15.70;67.70;;;;;;5075446;28;20067;-80
2023/06/03 05:45:13;;;;;;;2.13;0.57;;;15.80;67.20;;;;;;5075369;28;20040;-80
2023/06/03 05:47:40;;;;;;;2.28;0.50;;;15.80;67.20;;;;;;5093566;28;20040;-80
2023/06/03 05:50:06;;;;;;;2.85;0.35;;;15.90;66.80;;;;;;5093011;28;20757;-80
2023/06/03 05:52:32;;;;;;;3.15;0.50;;;15.90;66.70;;;;;;5093591;28;20122;-79
2023/06/03 05:54:58;;;;;;;3.05;0.50;;;15.90;66.10;;;;;;5093599;28;20040;-80
2023/06/03 05:57:24;;;;;;;1.67;0.40;;;15.90;66.40;;;;;;5093398;28;20039;-80
2023/06/03 05:59:51;;;;;;;1.08;0.30;;;16.00;66.40;;;;;;5093553;28;20034;-80
2023/06/03 06:02:20;;;;;;;2.90;0.40;;;16.10;66.20;;;;;;5093476;28;20050;-80
2023/06/03 06:04:46;;;;;;;2.17;0.40;;;16.10;65.30;;;;;;5075361;28;20040;-80
2023/06/03 06:07:12;;;;;;;2.45;0.43;;;16.20;65.10;;;;;;5093451;28;20034;-80
2023/06/03 06:09:38;;;;;;;6.15;1.40;;;16.20;65.10;;;;;;5093159;28;20597;-80
2023/06/03 06:12:04;;;;;;;3.30;0.60;;;16.30;64.30;;;;;;5075110;28;20419;-80
2023/06/03 06:14:30;;;;;;;2.97;0.40;;;16.40;65.10;;;;;;5093498;28;20036;-80
2023/06/03 06:16:56;;;;;;;3.65;0.82;;;16.40;64.40;;;;;;5093234;28;20514;-80
2023/06/03 06:19:23;;;;;;;1.42;0.40;;;16.40;63.60;;;;;;5075353;28;20353;-80
2023/06/03 06:21:49;;;;;;;2.53;0.50;;;16.50;64.30;;;;;;5092690;28;20032;-80
2023/06/03 06:24:16;;;;;;;3.50;0.45;;;16.50;64.40;;;;;;5092778;28;20385;-80
2023/06/03 06:26:41;;;;;;;1.30;0.52;;;16.60;64.50;;;;;;5093002;28;20537;-79
2023/06/03 06:29:07;;;;;;;1.52;0.30;;;16.80;63.90;;;;;;5093346;28;20115;-80
2023/06/03 06:31:33;;;;;;;1.70;0.35;;;16.80;64.00;;;;;;5093202;28;20491;-80
2023/06/03 06:33:59;;;;;;;2.90;0.40;;;17.00;64.80;;;;;;5093018;28;20132;-79
2023/06/03 06:36:43;;;;;;;1.42;0.30;;;17.10;62.70;;;;;;5092907;28;20025;-80
2023/06/03 06:39:33;;;;;;;1.65;0.30;;;17.10;62.40;;;;;;5092946;28;20055;-80
2023/06/03 06:42:33;;;;;;;4.20;0.50;;;17.20;62.80;;;;;;5092820;28;20111;-79
2023/06/03 06:45:08;;;;;;;3.05;0.50;;;17.30;62.10;;;;;;5092935;28;20036;-78
2023/06/03 06:47:36;;;;;;;3.70;0.50;;;17.20;62.20;;;;;;5093489;28;20032;-80
2023/06/03 06:50:06;;;;;;;3.78;0.38;;;17.30;61.50;;;;;;5095933;28;20054;-80
2023/06/03 06:52:32;;;;;;;1.50;0.35;;;17.30;61.80;;;;;;5096650;28;20081;-81
2023/06/03 06:54:59;;;;;;;4.28;0.43;;;17.40;62.10;;;;;;5096957;28;20114;-81
2023/06/03 06:57:30;;;;;;;4.43;0.40;;;17.40;61.50;;;;;;5096341;28;20108;-81
2023/06/03 06:59:56;;;;;;;1.23;0.30;;;17.50;61.30;;;;;;5096839;28;20050;-81
2023/06/03 07:02:22;;;;;;;4.10;0.50;;;17.50;61.60;;;;;;5078479;28;20399;-81
2023/06/03 07:04:51;;;;;;;3.55;0.63;;;17.50;61.10;;;;;;5096343;28;20024;-80
2023/06/03 07:07:17;;;;;;;3.05;0.85;;;17.60;61.50;;;;;;5096540;28;20028;-81
2023/06/03 07:09:43;;;;;;;5.60;0.30;;;17.70;61.60;;;;;;5078491;28;20427;-81
2023/06/03 07:12:09;;;;;;;1.63;0.30;;;17.60;60.50;;;;;;5095926;28;20388;-80
2023/06/03 07:14:35;;;;;;;4.05;0.40;;;17.60;60.70;;;;;;5096451;28;20027;-81
2023/06/03 07:17:01;;;;;;;2.10;0.40;;;17.60;61.30;;;;;;5096366;28;20593;-80
2023/06/03 07:19:33;;;;;;;2.17;0.47;;;17.70;61.60;;;;;;5096028;28;20059;-80
2023/06/03 07:21:59;;;;;;;1.80;0.38;;;17.90;62.40;;;;;;5095691;28;20417;-80
2023/06/03 07:24:25;;;;;;;1.67;0.73;;;18.00;61.10;;;;;;5095981;28;20476;-80
2023/06/03 07:26:51;;;;;;;2.80;0.40;;;18.10;61.00;;;;;;5077746;28;20047;-80
2023/06/03 07:29:16;;;;;;;2.30;0.32;;;18.20;60.70;;;;;;5095834;28;20490;-81
2023/06/03 07:31:42;;;;;;;2.22;0.43;;;18.30;60.70;;;;;;5096106;28;20032;-80
2023/06/03 07:34:08;;;;;;;3.60;0.50;;;18.50;60.10;;;;;;5096139;28;20024;-80
2023/06/03 07:36:34;;;;;;;1.15;0.32;;;18.60;60.00;;;;;;5095859;28;20111;-79
2023/06/03 07:39:08;;;;;;;2.17;0.30;;;18.50;60.60;;;;;;5096033;28;20110;-80
2023/06/03 07:41:39;;;;;;;3.53;0.40;;;18.60;60.30;;;;;;5077810;28;20468;-80
2023/06/03 07:44:09;;;;;;;1.27;0.43;;;18.80;60.50;;;;;;5095543;28;20032;-80
2023/06/03 07:46:41;;;;;;;2.17;0.45;;;18.90;58.70;;;;;;5077450;28;20048;-80
2023/06/03 07:49:09;;;;;;;1.48;0.50;;;18.90;58.70;;;;;;5095865;28;20028;-80
2023/06/03 07:51:35;;;;;;;2.45;0.45;;;19.10;58.20;;;;;;5095453;28;20056;-80
2023/06/03 07:54:03;;;;;;;2.20;0.20;;;19.20;57.80;;;;;;5095870;28;20484;-78
2023/06/03 07:56:29;;;;;;;4.18;0.40;;;19.30;57.50;;;;;;5078096;28;20055;-80
2023/06/03 07:58:54;;;;;;;1.95;0.38;;;19.30;56.90;;;;;;5095222;28;20405;-81
2023/06/03 08:01:24;;;;;;;3.38;0.68;;;19.30;57.90;;;;;;5095524;28;20085;-79
2023/06/03 08:03:52;;;;;;;1.70;0.43;;;19.40;57.10;;;;;;5095641;28;20426;-80
2023/06/03 08:06:18;;;;;;;1.98;0.60;;;19.50;57.20;;;;;;5095167;28;20028;-81
2023/06/03 08:08:43;;;;;;;1.70;0.57;;;19.60;56.70;;;;;;5095054;28;20036;-80
2023/06/03 08:11:10;;;;;;;2.47;0.38;;;19.70;55.80;;;;;;5077382;28;20027;-80
2023/06/03 08:13:36;;;;;;;0.70;0.30;;;19.70;56.10;;;;;;5095305;28;20028;-80
2023/06/03 08:16:04;;;;;;;3.20;0.45;;;19.70;54.10;;;;;;5094892;28;20032;-80
2023/06/03 08:18:47;;;;;;;1.67;0.35;;;19.80;54.20;;;;;;5093858;28;20556;-79
2023/06/03 08:21:14;;;;;;;1.35;0.22;;;19.80;53.00;;;;;;5094797;28;20429;-79
2023/06/03 08:23:40;;;;;;;2.60;0.50;;;19.80;54.70;;;;;;5095114;28;20024;-79
2023/06/03 08:26:08;;;;;;;1.00;0.22;;;20.00;54.10;;;;;;5094890;28;20039;-80
2023/06/03 08:28:33;;;;;;;3.22;0.32;;;20.10;54.60;;;;;;5094889;28;20024;-81
2023/06/03 08:30:59;;;;;;;2.17;0.50;;;20.30;54.00;;;;;;5095266;28;20039;-80
2023/06/03 08:33:25;;;;;;;2.92;0.40;;;20.40;52.80;;;;;;5094843;28;20032;-80
2023/06/03 08:35:51;;;;;;;3.60;0.40;;;20.50;51.50;;;;;;5094591;28;20069;-79
2023/06/03 08:38:17;;;;;;;2.15;0.30;;;20.60;51.60;;;;;;5094758;28;20032;-79
2023/06/03 08:40:48;;;;;;;2.45;0.40;;;20.70;50.90;;;;;;5094450;28;20060;-80
2023/06/03 08:43:14;;;;;;;3.25;0.20;;;20.80;51.20;;;;;;5094849;28;20043;-80
2023/06/03 08:45:55;;;;;;;2.90;0.50;;;20.80;50.60;;;;;;5094423;28;20048;-79
2023/06/03 08:48:37;;;;;;;3.85;0.40;;;20.80;50.30;;;;;;5076073;28;20028;-80
2023/06/03 08:51:04;;;;;;;3.45;0.60;;;20.80;50.10;;;;;;5093938;28;20028;-79
2023/06/03 08:53:55;;;;;;;4.10;0.25;;;20.90;49.90;;;;;;5094501;28;20073;-79
2023/06/03 08:56:22;;;;;;;2.17;0.30;;;20.80;50.20;;;;;;5094214;28;20066;-80
2023/06/03 08:58:54;;;;;;;1.42;0.15;;;20.90;49.00;;;;;;5094487;28;20032;-80
2023/06/03 09:01:32;;;;;;;1.23;0.20;;;21.00;47.70;;;;;;5075804;28;20028;-80
2023/06/03 09:04:00;;;;;;;1.20;0.20;;;21.00;48.60;;;;;;5094437;28;20028;-79
2023/06/03 09:06:26;;;;;;;4.03;0.40;;;21.00;49.30;;;;;;5094033;28;20480;-79
2023/06/03 09:08:53;;;;;;;2.80;0.30;;;21.00;49.80;;;;;;5093006;28;20486;-80
2023/06/03 09:11:19;;;;;;;2.13;0.30;;;21.10;49.50;;;;;;5093605;28;20025;-79
2023/06/03 09:13:46;;;;;;;2.20;0.25;;;21.10;48.60;;;;;;5075863;28;20387;-80
2023/06/03 09:16:13;;;;;;;2.70;0.35;;;21.20;49.40;;;;;;5094143;28;20024;-80
2023/06/03 09:18:39;;;;;;;1.08;0.30;;;21.30;49.40;;;;;;5076225;28;20138;-80
2023/06/03 09:21:09;;;;;;;2.13;0.20;;;21.20;47.80;;;;;;5093425;28;20411;-80
2023/06/03 09:23:42;;;;;;;1.70;0.25;;;21.40;48.50;;;;;;5094142;28;20039;-80
2023/06/03 09:26:08;;;;;;;2.00;0.20;;;21.50;47.80;;;;;;5075685;28;20036;-81
2023/06/03 09:28:37;;;;;;;0.75;0.17;;;21.60;45.30;;;;;;5093667;28;20032;-81
2023/06/03 09:31:04;;;;;;;2.35;0.20;;;21.50;44.40;;;;;;5075213;28;20028;-80
2023/06/03 09:33:30;;;;;;;0.50;0.10;;;21.50;43.60;;;;;;5093834;28;20112;-80
2023/06/03 09:36:11;;;;;;;2.65;0.17;;;21.50;43.90;;;;;;5075712;28;20465;-79
2023/06/03 09:38:54;;;;;;;3.72;0.30;;;21.60;45.90;;;;;;5093481;28;20459;-79
2023/06/03 09:41:29;;;;;;;2.58;0.22;;;21.90;45.30;;;;;;5093611;28;20038;-80
2023/06/03 09:44:05;;;;;;;0.85;0.20;;;22.10;45.60;;;;;;5093773;28;20029;-79
2023/06/03 09:46:32;;;;;;;3.83;0.43;;;22.30;43.70;;;;;;5093287;28;20052;-79
2023/06/03 09:49:16;;;;;;;1.38;0.40;;;22.40;45.60;;;;;;5093646;28;20074;-79
2023/06/03 09:51:44;;;;;;;3.08;0.20;;;22.50;43.20;;;;;;5093249;28;20523;-79
2023/06/03 09:54:13;;;;;;;1.80;0.20;;;22.30;43.40;;;;;;5093425;28;20032;-79
2023/06/03 09:56:40;;;;;;;1.88;0.20;;;22.30;45.00;;;;;;5093504;28;20074;-80
2023/06/03 09:59:14;;;;;;;1.65;0.40;;;22.50;44.50;;;;;;5092944;28;20077;-79
2023/06/03 10:01:48;;;;;;;1.35;0.20;;;22.60;43.10;;;;;;5093467;28;20020;-81
2023/06/03 10:04:22;;;;;;;0.47;0.10;;;22.60;42.60;;;;;;5093335;28;20028;-80
2023/06/03 10:06:50;;;;;;;2.05;0.15;;;22.60;42.10;;;;;;5075976;28;20110;-80
2023/06/03 10:09:22;;;;;;;1.27;0.30;;;22.50;42.20;;;;;;5074965;28;20028;-81
2023/06/03 10:11:50;;;;;;;1.58;0.20;;;22.60;43.10;;;;;;5093444;28;20024;-81
2023/06/03 10:14:21;;;;;;;2.00;0.20;;;22.80;43.40;;;;;;5093444;28;20032;-80
2023/06/03 10:17:03;;;;;;;0.60;0.20;;;22.80;42.90;;;;;;5093716;28;20066;-80
2023/06/03 10:19:30;;;;;;;3.40;0.28;;;22.80;42.50;;;;;;5093084;28;20024;-81
2023/06/03 10:21:56;;;;;;;1.23;0.30;;;22.80;42.90;;;;;;5093977;28;20434;-79
2023/06/03 10:24:23;;;;;;;4.45;0.20;;;23.00;43.70;;;;;;5097202;28;20055;-80
2023/06/03 10:26:50;;;;;;;0.85;0.20;;;23.20;43.30;;;;;;5079274;28;20111;-80
2023/06/03 10:29:15;;;;;;;1.17;0.40;;;23.30;42.40;;;;;;5078964;28;20413;-81
2023/06/03 10:31:44;;;;;;;0.85;0.20;;;23.30;42.70;;;;;;5097005;28;20117;-81
2023/06/03 10:34:14;;;;;;;1.35;0.20;;;23.20;42.80;;;;;;5096935;28;20028;-81
2023/06/03 10:36:44;;;;;;;1.10;0.10;;;23.20;41.40;;;;;;5097069;28;20024;-80
2023/06/03 10:39:10;;;;;;;1.73;0.10;;;23.30;39.60;;;;;;5096589;28;20028;-81
2023/06/03 10:41:39;;;;;;;1.27;0.20;;;23.30;40.10;;;;;;5096928;28;20031;-81
2023/06/03 10:44:05;;;;;;;1.70;0.30;;;23.30;40.90;;;;;;5097157;28;20024;-81
2023/06/03 10:46:37;;;;;;;1.67;0.10;;;23.30;41.50;;;;;;5096407;28;20146;-81
2023/06/03 10:49:06;;;;;;;2.05;0.13;;;23.40;41.10;;;;;;5097082;28;20056;-81
2023/06/03 10:51:59;;;;;;;0.82;0.10;;;23.40;40.80;;;;;;5096170;28;20499;-81
2023/06/03 10:54:30;;;;;;;1.40;0.20;;;23.40;40.80;;;;;;5096731;28;20028;-80
2023/06/03 10:57:10;;;;;;;0.98;0.22;;;23.50;40.50;;;;;;5096551;28;20024;-81
2023/06/03 10:59:43;;;;;;;0.63;0.20;;;23.60;40.80;;;;;;5096522;28;20024;-81
2023/06/03 11:02:09;;;;;;;3.70;0.32;;;23.70;40.30;;;;;;5078597;28;20024;-78
2023/06/03 11:04:37;;;;;;;1.15;0.20;;;23.70;39.70;;;;;;5096185;28;20540;-81
2023/06/03 11:07:04;;;;;;;0.88;0.10;;;23.60;39.40;;;;;;5096406;28;20043;-81
2023/06/03 11:09:41;;;;;;;0.70;0.20;;;23.60;39.10;;;;;;5096439;28;20093;-81
2023/06/03 11:12:13;;;;;;;2.42;0.20;;;23.70;39.90;;;;;;5096227;28;20020;-80
2023/06/03 11:14:48;;;;;;;3.38;0.20;;;23.70;38.90;;;;;;5096464;28;20024;-80
2023/06/03 11:17:21;;;;;;;1.80;0.20;;;23.60;39.50;;;;;;5096373;28;20051;-80
2023/06/03 11:19:51;;;;;;;1.02;0.10;;;23.70;40.10;;;;;;5096391;28;20036;-80
2023/06/03 11:22:29;;;;;;;1.67;0.20;;;23.70;39.40;;;;;;5095649;28;20032;-80
2023/06/03 11:24:59;;;;;;;0.60;0.20;;;23.80;39.90;;;;;;5096012;28;20036;-80
2023/06/03 11:27:27;;;;;;;2.53;0.25;;;23.90;39.90;;;;;;5078098;28;20032;-80
2023/06/03 11:29:57;;;;;;;1.42;0.20;;;23.90;39.70;;;;;;5077974;28;20533;-79
2023/06/03 11:32:30;;;;;;;0.70;0.13;;;23.90;39.20;;;;;;5077930;28;20468;-80
2023/06/03 11:35:04;;;;;;;3.35;0.20;;;23.90;39.30;;;;;;5095436;28;20075;-80
2023/06/03 11:37:48;;;;;;;2.78;0.30;;;24.00;41.40;;;;;;5077844;28;20376;-80
2023/06/03 11:40:17;;;;;;;0.63;0.20;;;24.10;41.70;;;;;;5095752;28;20028;-81
2023/06/03 11:42:49;;;;;;;1.23;0.30;;;24.30;41.60;;;;;;5095644;28;20051;-81
2023/06/03 11:45:29;;;;;;;1.02;0.20;;;24.40;40.10;;;;;;5094989;28;20028;-80
2023/06/03 11:47:56;;;;;;;1.85;0.20;;;24.40;39.20;;;;;;5095585;28;20077;-80
2023/06/03 11:50:24;;;;;;;1.48;0.30;;;24.60;39.80;;;;;;5095293;28;20183;-80
2023/06/03 11:52:50;;;;;;;5.55;0.28;;;24.50;40.20;;;;;;5095581;28;20031;-80
2023/06/03 11:55:25;;;;;;;4.22;0.30;;;24.50;40.30;;;;;;5095624;28;20032;-81
2023/06/03 11:57:51;;;;;;;2.80;0.28;;;24.50;40.50;;;;;;5095539;28;20032;-80
2023/06/03 12:00:18;;;;;;;1.63;0.22;;;24.60;41.30;;;;;;5094231;28;20028;-81
2023/06/03 12:02:47;;;;;;;2.67;0.25;;;24.60;40.80;;;;;;5095201;28;20032;-80
2023/06/03 12:05:15;;;;;;;4.75;0.20;;;24.60;41.90;;;;;;5095495;28;20119;-79
2023/06/03 12:07:58;;;;;;;1.40;0.17;;;24.60;40.10;;;;;;5094905;28;20062;-80
2023/06/03 12:10:23;;;;;;;3.10;0.20;;;24.50;40.50;;;;;;5095480;28;20028;-80
2023/06/03 12:12:53;;;;;;;0.63;0.20;;;24.50;39.90;;;;;;5095001;28;20039;-81
2023/06/03 12:15:19;;;;;;;4.22;0.30;;;24.60;40.60;;;;;;5095237;28;20114;-80
2023/06/03 12:17:46;;;;;;;3.75;0.38;;;24.60;40.90;;;;;;5095134;28;20028;-80
2023/06/03 12:20:27;;;;;;;2.05;0.22;;;24.60;40.90;;;;;;5094812;28;20035;-81
2023/06/03 12:23:00;;;;;;;3.60;0.30;;;24.70;40.50;;;;;;5095115;28;20071;-81
2023/06/03 12:25:27;;;;;;;0.90;0.20;;;24.80;39.60;;;;;;5095058;28;20036;-80
2023/06/03 12:27:54;;;;;;;3.25;0.20;;;24.90;39.00;;;;;;5094861;28;20058;-80
2023/06/03 12:30:30;;;;;;;2.67;0.20;;;24.90;39.10;;;;;;5093742;28;20485;-80
2023/06/03 12:32:58;;;;;;;1.17;0.20;;;25.00;40.20;;;;;;5094999;28;20040;-80
2023/06/03 12:35:26;;;;;;;2.38;0.35;;;25.00;39.20;;;;;;5094816;28;20036;-81
2023/06/03 12:38:08;;;;;;;2.28;0.30;;;25.00;38.60;;;;;;5094649;28;20085;-80
2023/06/03 12:40:35;;;;;;;1.55;0.20;;;25.00;39.60;;;;;;5094753;28;20024;-79
2023/06/03 12:43:04;;;;;;;1.98;0.20;;;25.00;38.70;;;;;;5094724;28;20118;-81
2023/06/03 12:45:30;;;;;;;1.55;0.50;;;25.00;39.80;;;;;;5093227;28;20032;-81
2023/06/03 12:47:56;;;;;;;0.65;0.17;;;25.00;37.80;;;;;;5094692;28;20028;-80
2023/06/03 12:50:29;;;;;;;5.32;0.50;;;24.90;37.70;;;;;;5094167;28;20124;-81
2023/06/03 12:52:55;;;;;;;1.15;0.20;;;24.90;38.70;;;;;;5094087;28;20028;-81
2023/06/03 12:55:25;;;;;;;4.20;0.20;;;24.90;38.00;;;;;;5076150;28;20503;-79
2023/06/03 12:57:53;;;;;;;1.60;0.20;;;24.90;38.90;;;;;;5094483;28;20031;-79